Kettle, Kentucky
Current Conditions -  °F | °C
As of 8:56 AM on Wednesday 22 Oct 2014 (Local Time) from KEKQ Reporting Station
Few Clouds Few Clouds  
Wind Chill: 45°   Ceiling: Unl
Heat Index: 48°   Visibility: 10mi
Dew Point: 42°   Wind: 7mph
Humidity: 80%   Direction: 50°NE
Pressure: 30.28"   Gusts: NA
Location:  36.7332°N, 85.3312°W
Report Text: KEKQ 221356Z AUTO 05006KT 10SM FEW015 09/06 A3028 RMK AO2 T00880055 SLP259
Loading
Personal Weather Stations






























Interactive Weather Map
Tropical Storm Tracking
New forecast layout! Learn more

10-Day Weather Forecast

Advertisements
Track Severe Weather on mobile